Perryville, New York
Current Conditions -  °F | °C
As of 6:54 AM on Sunday 23 Nov 2014 (Local Time) from KSYR Reporting Station
Overcast Overcast  
Wind Chill: 45°   Ceiling: 3700
Heat Index: 49°   Visibility: 10mi
Dew Point: 40°   Wind: 9mph
Humidity: 71%   Direction: 200°SSW
Pressure: 30.05"   Gusts: NA
Location:  43.0803°N, 75.7643°W
Report Text: KSYR 231154Z 20008KT 10SM OVC037 09/04 A3005 RMK AO2 SLP174 60004 70019 T00940044 10094 20078 53008 $
Loading
Personal Weather Stations






























Interactive Weather Map New forecast layout! Learn more

10-Day Weather Forecast

Advertisements
Track Severe Weather on mobile